Date,TemperatureHighF,TemperatureAvgF,TemperatureLowF,DewpointHighF,DewpointAvgF,DewpointLowF,HumidityHigh,HumidityAvg,HumidityLow,PressureMaxIn,PressureMinIn,WindSpeedMaxMPH,WindSpeedAvgMPH,GustSpeedMaxMPH,PrecipitationSumIn
2013-5-1,71.4,52.0,29.9,38.2,32.4,27.8,96,55,21,30.41,30.32,8,2,12,0.00
2013-5-2,68.5,49.9,35.1,47.3,38.7,33.4,96,69,40,30.48,30.36,8,2,13,0.00
2013-5-3,68.4,49.6,31.4,46.8,39.4,30.0,96,71,42,30.51,30.32,7,2,8,0.00
2013-5-4,67.9,48.1,34.0,44.3,38.0,32.2,97,72,27,30.36,30.25,9,2,13,0.00
2013-5-5,63.2,47.6,29.7,41.6,36.8,28.8,97,70,38,30.30,30.20,8,3,11,0.00
2013-5-6,65.2,49.1,34.4,47.5,41.8,33.1,97,79,44,30.23,30.11,10,4,13,0.00
2013-5-7,72.7,55.7,44.1,54.8,48.5,43.2,97,80,40,30.13,30.04,10,4,14,0.00
2013-5-8,73.5,59.7,44.2,61.6,54.3,43.4,98,84,60,30.18,30.07,10,4,16,0.00
2013-5-9,56.9,54.4,52.7,55.1,53.2,52.2,98,96,94,30.07,29.87,4,1,8,0.54
2013-5-10,75.4,59.4,51.2,62.5,55.6,50.7,98,88,56,29.91,29.85,7,1,9,0.04
2013-5-11,63.6,56.6,51.3,60.0,55.1,50.2,97,95,88,29.87,29.63,6,3,9,0.41
2013-5-12,67.5,58.7,43.6,60.6,54.5,40.6,98,87,45,29.67,29.48,6,2,8,0.06
2013-5-13,57.1,48.3,39.7,39.6,31.6,27.2,92,54,35,29.96,29.68,11,5,16,0.00
2013-5-14,57.5,47.2,34.0,35.0,31.6,27.9,86,57,33,29.98,29.89,4,1,9,0.00
2013-5-15,62.2,48.0,32.3,48.5,35.3,22.7,95,67,24,29.97,29.61,14,4,21,0.19
2013-5-16,77.2,60.8,47.6,56.7,45.8,33.3,98,65,23,29.74,29.51,9,3,16,0.00
2013-5-17,64.9,54.6,42.9,47.0,40.2,35.2,88,60,35,30.16,29.74,5,2,9,0.00
2013-5-18,68.0,51.1,36.5,46.4,41.7,35.2,97,73,40,30.30,30.15,8,2,12,0.00
2013-5-19,66.5,52.3,42.7,52.5,47.0,41.1,96,83,54,30.32,30.18,6,2,9,0.07
2013-5-20,73.4,58.5,49.3,63.2,54.6,48.1,97,88,57,30.18,29.87,7,2,11,0.46
2013-5-21,57.3,52.0,48.7,56.5,50.6,47.6,97,95,93,30.08,29.86,5,2,8,0.27
2013-5-22,58.3,51.9,47.9,53.6,50.1,47.1,98,94,84,29.98,29.86,4,1,7,0.30
2013-5-23,63.0,56.4,48.6,61.6,54.8,47.8,98,94,86,29.90,29.75,6,3,8,0.09
2013-5-24,67.9,59.2,48.3,65.8,58.1,46.8,98,96,92,29.80,29.59,6,4,13,0.81
2013-5-25,49.8,47.1,44.4,48.7,46.1,43.6,98,96,94,29.79,29.62,6,3,13,0.59
2013-5-26,55.3,48.1,43.9,47.0,43.0,37.4,98,84,61,29.93,29.57,4,2,12,0.22
2013-5-27,68.3,52.8,35.6,43.4,37.3,32.1,96,61,27,30.11,29.92,6,2,11,0.00
2013-5-28,71.8,54.7,35.6,46.5,38.8,34.1,97,62,26,30.19,30.12,10,3,12,0.00
2013-5-29,56.0,51.9,43.9,54.9,50.8,41.9,98,96,87,30.16,29.96,5,1,11,0.08
2013-5-30,86.4,71.1,54.5,67.8,60.0,53.9,99,73,39,29.98,29.91,6,2,14,0.00
2013-5-31,91.4,75.2,55.7,73.1,63.8,54.6,98,71,43,30.00,29.82,9,2,11,0.01